createdAt,value
2022-12-12T00:01:26.115Z,5.57
2022-12-12T00:03:55.206Z,5.23
2022-12-12T00:06:24.768Z,6.23
2022-12-12T00:08:53.346Z,8.90
2022-12-12T00:11:23.307Z,4.77
2022-12-12T00:13:54.324Z,4.80
2022-12-12T00:16:23.222Z,5.23
2022-12-12T00:18:52.294Z,4.60
2022-12-12T00:21:22.794Z,3.37
2022-12-12T00:23:51.733Z,4.53
2022-12-12T00:26:22.911Z,5.20
2022-12-12T00:28:53.334Z,3.97
2022-12-12T00:31:22.509Z,4.20
2022-12-12T00:33:51.486Z,4.03
2022-12-12T00:36:22.220Z,4.10
2022-12-12T00:38:51.016Z,4.80
2022-12-12T00:41:20.000Z,8.63
2022-12-12T00:43:49.035Z,4.27
2022-12-12T00:46:22.390Z,4.53
2022-12-12T00:48:51.549Z,5.77
2022-12-12T00:51:21.984Z,5.57
2022-12-12T00:53:51.358Z,5.37
2022-12-12T00:56:22.168Z,5.53
2022-12-12T00:58:51.692Z,5.17
2022-12-12T01:01:24.461Z,4.07
2022-12-12T01:03:53.861Z,5.07
2022-12-12T01:06:23.129Z,5.53
2022-12-12T01:08:51.905Z,3.53
2022-12-12T01:11:21.419Z,4.80
2022-12-12T01:13:51.892Z,5.47
2022-12-12T01:16:22.099Z,9.93
2022-12-12T01:18:50.649Z,4.83
2022-12-12T01:21:20.554Z,4.83
2022-12-12T01:23:49.236Z,5.23
2022-12-12T01:26:20.384Z,4.23
2022-12-12T01:28:48.996Z,3.70
2022-12-12T01:31:17.756Z,6.40
2022-12-12T01:33:48.005Z,5.17
2022-12-12T01:36:18.562Z,4.33
2022-12-12T01:38:47.687Z,5.63
2022-12-12T01:41:17.748Z,4.93
2022-12-12T01:43:46.842Z,4.80
2022-12-12T01:46:39.428Z,3.97
2022-12-12T01:49:14.746Z,4.83
2022-12-12T01:51:44.203Z,4.87
2022-12-12T01:54:16.476Z,5.40
2022-12-12T01:56:47.156Z,5.33
2022-12-12T01:59:18.948Z,5.10
2022-12-12T02:01:47.908Z,4.47
2022-12-12T02:04:19.063Z,4.87
2022-12-12T02:06:48.824Z,2.97
2022-12-12T02:09:18.237Z,4.40
2022-12-12T02:11:48.195Z,4.13
2022-12-12T02:14:19.867Z,4.50
2022-12-12T02:17:03.016Z,4.80
2022-12-12T02:20:25.932Z,3.83
2022-12-12T02:23:22.725Z,4.23
2022-12-12T02:26:11.297Z,5.00
2022-12-12T02:29:14.388Z,3.40
2022-12-12T02:31:52.643Z,6.27
2022-12-12T02:34:29.652Z,4.60
2022-12-12T02:37:07.705Z,5.97
2022-12-12T02:39:46.379Z,4.00
2022-12-12T02:42:24.221Z,3.30
2022-12-12T02:44:58.489Z,3.73
2022-12-12T02:47:31.561Z,10.27
2022-12-12T02:50:04.466Z,4.70
2022-12-12T02:52:33.764Z,5.23
2022-12-12T02:55:02.553Z,5.23
2022-12-12T02:57:33.346Z,8.50
2022-12-12T03:00:07.275Z,4.73
2022-12-12T03:03:14.208Z,5.83
2022-12-12T03:06:07.743Z,5.43
2022-12-12T03:08:56.560Z,4.27
2022-12-12T03:11:40.872Z,4.33
2022-12-12T03:14:13.772Z,5.87
2022-12-12T03:16:49.373Z,3.60
2022-12-12T03:19:27.416Z,3.40
2022-12-12T03:22:01.981Z,4.23
2022-12-12T03:24:34.468Z,3.10
2022-12-12T03:27:08.558Z,3.57
2022-12-12T03:29:41.981Z,4.77
2022-12-12T03:32:16.250Z,7.00
2022-12-12T03:34:50.871Z,3.53
2022-12-12T03:37:23.382Z,3.33
2022-12-12T03:39:56.708Z,2.97
2022-12-12T03:42:29.918Z,4.37
2022-12-12T03:45:02.357Z,3.67
2022-12-12T03:47:36.735Z,5.83
2022-12-12T03:50:12.731Z,5.37
2022-12-12T03:52:46.684Z,3.97
2022-12-12T03:55:21.944Z,5.57
2022-12-12T03:57:56.044Z,3.37
2022-12-12T04:00:24.714Z,3.73
2022-12-12T04:02:59.962Z,2.23
2022-12-12T04:05:38.280Z,3.53
2022-12-12T04:08:12.478Z,2.70
2022-12-12T04:11:06.033Z,3.73
2022-12-12T04:13:42.235Z,2.40
2022-12-12T04:16:15.488Z,3.80
2022-12-12T04:18:53.298Z,2.57
2022-12-12T04:21:52.109Z,2.77
2022-12-12T04:24:29.191Z,3.27
2022-12-12T04:27:05.439Z,2.63
2022-12-12T04:29:39.942Z,2.77
2022-12-12T04:32:17.020Z,3.07
2022-12-12T04:34:53.031Z,3.87
2022-12-12T04:37:25.392Z,5.40
2022-12-12T04:39:57.647Z,5.53
2022-12-12T04:42:28.832Z,2.10
2022-12-12T04:45:02.641Z,5.67
2022-12-12T04:47:32.819Z,2.87
2022-12-12T04:50:02.196Z,3.27
2022-12-12T04:52:34.763Z,3.90
2022-12-12T04:55:07.203Z,3.97
2022-12-12T04:57:40.053Z,3.97
2022-12-12T05:00:09.693Z,3.77
2022-12-12T05:02:45.579Z,3.50
2022-12-12T05:05:19.363Z,3.30
2022-12-12T05:07:56.007Z,3.50
2022-12-12T05:10:25.141Z,2.63
2022-12-12T05:12:58.885Z,3.67
2022-12-12T05:15:28.514Z,4.07
2022-12-12T05:18:00.685Z,4.97
2022-12-12T05:20:29.181Z,13.10
2022-12-12T05:22:58.888Z,5.70
2022-12-12T05:25:27.610Z,6.73
2022-12-12T05:27:56.150Z,5.23
2022-12-12T05:30:25.480Z,4.93
2022-12-12T05:32:54.144Z,5.10
2022-12-12T05:35:23.012Z,8.07
2022-12-12T05:37:52.114Z,7.80
2022-12-12T05:40:22.655Z,14.77
2022-12-12T05:42:51.540Z,16.97
2022-12-12T05:45:20.068Z,10.97
2022-12-12T05:47:48.588Z,7.77
2022-12-12T05:50:17.062Z,5.80
2022-12-12T05:52:45.586Z,6.97
2022-12-12T05:55:14.274Z,6.33
2022-12-12T05:57:44.115Z,11.43
2022-12-12T06:00:13.227Z,3.90
2022-12-12T06:02:41.784Z,5.40
2022-12-12T06:05:11.239Z,5.33
2022-12-12T06:07:40.589Z,6.10
2022-12-12T06:10:09.881Z,5.37
2022-12-12T06:12:38.279Z,5.63
2022-12-12T06:15:10.356Z,5.23
2022-12-12T06:17:38.930Z,5.27
2022-12-12T06:20:08.285Z,5.67
2022-12-12T06:22:37.172Z,8.73
2022-12-12T06:25:06.235Z,8.23
2022-12-12T06:27:35.959Z,7.73
2022-12-12T06:30:05.156Z,7.73
2022-12-12T06:32:34.898Z,15.73
2022-12-12T06:35:03.690Z,11.77
2022-12-12T06:37:32.110Z,7.13
2022-12-12T06:40:00.432Z,9.07
2022-12-12T06:42:28.756Z,9.73
2022-12-12T06:44:57.119Z,3.70
2022-12-12T06:47:25.437Z,4.90
2022-12-12T06:49:55.474Z,47.10
2022-12-12T06:52:23.939Z,7.97
2022-12-12T06:54:52.316Z,10.00
2022-12-12T06:57:21.004Z,11.20
2022-12-12T06:59:51.214Z,9.33
2022-12-12T07:02:23.272Z,3.10
2022-12-12T07:04:57.545Z,7.27
2022-12-12T07:07:25.883Z,4.60
2022-12-12T07:09:54.167Z,3.53
2022-12-12T07:12:22.527Z,3.67
2022-12-12T07:14:50.879Z,4.23
2022-12-12T07:17:19.204Z,4.17
2022-12-12T07:19:47.524Z,3.50
2022-12-12T07:22:17.658Z,8.60
2022-12-12T07:24:46.046Z,2.60
2022-12-12T07:27:18.466Z,2.77
2022-12-12T07:29:50.000Z,2.33
2022-12-12T07:32:18.353Z,2.93
2022-12-12T07:34:46.665Z,4.87
2022-12-12T07:37:15.432Z,3.53
2022-12-12T07:39:45.138Z,4.50
2022-12-12T07:42:13.546Z,2.30
2022-12-12T07:44:41.917Z,4.33
2022-12-12T07:47:11.459Z,3.03
2022-12-12T07:49:39.758Z,3.30
2022-12-12T07:52:08.104Z,4.10
2022-12-12T07:54:36.475Z,2.57
2022-12-12T07:57:06.268Z,3.50
2022-12-12T07:59:34.643Z,5.13
2022-12-12T08:02:03.123Z,4.17
2022-12-12T08:04:31.568Z,4.83
2022-12-12T08:07:05.318Z,5.20
2022-12-12T08:09:37.523Z,4.57
2022-12-12T08:12:07.804Z,4.37
2022-12-12T08:14:37.223Z,4.43
2022-12-12T08:17:05.548Z,3.67
2022-12-12T08:19:34.054Z,3.33
2022-12-12T08:22:02.432Z,7.00
2022-12-12T08:24:31.000Z,3.63
2022-12-12T08:26:59.591Z,5.20
2022-12-12T08:29:29.696Z,6.23
2022-12-12T08:31:59.484Z,3.67
2022-12-12T08:34:27.924Z,4.33
2022-12-12T08:36:56.281Z,8.07
2022-12-12T08:39:24.651Z,5.00
2022-12-12T08:41:53.393Z,4.53
2022-12-12T08:44:22.383Z,5.17
2022-12-12T08:46:52.153Z,4.47
2022-12-12T08:49:20.491Z,4.57
2022-12-12T08:51:48.839Z,4.63
2022-12-12T08:54:17.910Z,4.27
2022-12-12T08:56:46.313Z,7.23
2022-12-12T08:59:15.064Z,5.57
2022-12-12T09:01:43.455Z,3.60
2022-12-12T09:04:13.568Z,10.60
2022-12-12T09:06:42.125Z,7.47
2022-12-12T09:09:10.997Z,12.40
2022-12-12T09:11:39.397Z,12.57
2022-12-12T09:14:07.794Z,7.43
2022-12-12T09:16:36.204Z,9.23
2022-12-12T09:19:04.663Z,16.07
2022-12-12T09:21:34.847Z,14.00
2022-12-12T09:24:03.236Z,14.03
2022-12-12T09:26:32.243Z,11.67
2022-12-12T09:29:00.776Z,12.43
2022-12-12T09:31:29.180Z,12.37
2022-12-12T09:33:57.593Z,11.47
2022-12-12T09:36:25.992Z,9.87
2022-12-12T09:38:55.768Z,5.20
2022-12-12T09:41:27.364Z,5.10
2022-12-12T09:43:58.849Z,5.27
2022-12-12T09:46:35.399Z,3.97
2022-12-12T09:49:15.636Z,3.93
2022-12-12T09:51:47.013Z,4.77
2022-12-12T09:54:20.530Z,5.47
2022-12-12T09:57:08.911Z,4.53
2022-12-12T09:59:45.239Z,7.50
2022-12-12T10:02:33.118Z,8.67
2022-12-12T10:05:04.283Z,9.93
2022-12-12T10:07:40.340Z,4.37
2022-12-12T10:10:21.412Z,5.87
2022-12-12T10:12:51.198Z,4.37
2022-12-12T10:15:28.556Z,5.97
2022-12-12T10:18:00.027Z,7.13
2022-12-12T10:20:31.060Z,4.50
2022-12-12T10:23:05.251Z,4.47
2022-12-12T10:25:42.635Z,6.27
2022-12-12T10:28:13.623Z,18.67
2022-12-12T10:31:02.465Z,21.70
2022-12-12T10:33:40.303Z,8.83
2022-12-12T10:36:16.903Z,11.33
2022-12-12T10:39:05.724Z,5.03
2022-12-12T10:41:45.371Z,6.10
2022-12-12T10:44:29.909Z,5.60
2022-12-12T10:47:04.156Z,6.00
2022-12-12T10:49:33.704Z,3.60
2022-12-12T10:52:05.450Z,5.23
2022-12-12T10:54:40.419Z,11.70
2022-12-12T10:57:19.799Z,7.30
2022-12-12T10:59:51.108Z,4.73
2022-12-12T11:02:28.566Z,21.30
2022-12-12T11:05:02.379Z,10.33
2022-12-12T11:07:30.860Z,13.83
2022-12-12T11:10:02.219Z,6.53
2022-12-12T11:12:36.278Z,12.57
2022-12-12T11:15:14.536Z,10.13
2022-12-12T11:17:43.281Z,7.50
2022-12-12T11:20:20.261Z,7.17
2022-12-12T11:22:52.144Z,5.77
2022-12-12T11:25:26.503Z,6.00
2022-12-12T11:28:03.344Z,6.07
2022-12-12T11:30:40.442Z,5.70
2022-12-12T11:33:19.124Z,5.47
2022-12-12T11:35:48.115Z,7.20
2022-12-12T11:38:20.218Z,4.50
2022-12-12T11:40:59.807Z,7.17
2022-12-12T11:43:31.035Z,9.73
2022-12-12T11:46:02.482Z,6.67
2022-12-12T11:48:43.816Z,6.43
2022-12-12T11:51:12.495Z,6.73
2022-12-12T11:53:44.575Z,4.63
2022-12-12T11:56:33.503Z,7.00
2022-12-12T11:59:21.596Z,5.07
2022-12-12T12:01:58.948Z,5.47
2022-12-12T12:04:44.172Z,15.10
2022-12-12T12:07:32.563Z,4.80
2022-12-12T12:10:09.119Z,6.23
2022-12-12T12:12:48.242Z,4.73
2022-12-12T12:15:34.953Z,6.50
2022-12-12T12:18:26.582Z,6.20
2022-12-12T12:21:23.984Z,10.00
2022-12-12T12:24:05.900Z,6.37
2022-12-12T12:26:39.677Z,9.10
2022-12-12T12:29:35.995Z,6.53
2022-12-12T12:32:13.247Z,7.03
2022-12-12T12:34:53.310Z,6.07
2022-12-12T12:37:35.202Z,11.77
2022-12-12T12:40:15.767Z,9.47
2022-12-12T12:42:59.496Z,6.37
2022-12-12T12:45:41.219Z,7.20
2022-12-12T12:48:19.607Z,6.00
2022-12-12T12:50:53.941Z,9.37
2022-12-12T12:53:29.680Z,5.63
2022-12-12T12:56:02.377Z,11.80
2022-12-12T12:58:37.354Z,6.73
2022-12-12T13:01:12.644Z,6.37
2022-12-12T13:03:48.507Z,12.20
2022-12-12T13:06:21.937Z,9.67
2022-12-12T13:08:59.196Z,6.10
2022-12-12T13:11:32.774Z,13.90
2022-12-12T13:14:13.829Z,7.53
2022-12-12T13:16:43.084Z,8.23
2022-12-12T13:19:23.216Z,5.53
2022-12-12T13:22:00.533Z,8.17
2022-12-12T13:24:34.709Z,8.03
2022-12-12T13:27:12.844Z,18.57
2022-12-12T13:29:48.168Z,11.40
2022-12-12T13:32:52.491Z,10.10
2022-12-12T13:35:28.588Z,8.30
2022-12-12T13:37:57.728Z,9.87
2022-12-12T13:40:30.379Z,12.13
2022-12-12T13:43:07.425Z,13.53
2022-12-12T13:45:42.197Z,13.67
2022-12-12T13:48:51.741Z,13.53
2022-12-12T13:51:39.352Z,12.20
2022-12-12T13:54:53.318Z,9.47
2022-12-12T13:57:36.645Z,7.90
2022-12-12T14:00:21.164Z,7.03
2022-12-12T14:03:02.728Z,13.10
2022-12-12T14:05:35.202Z,7.77
2022-12-12T14:08:09.342Z,11.20
2022-12-12T14:10:41.550Z,11.17
2022-12-12T14:13:27.611Z,11.87
2022-12-12T14:16:06.845Z,10.43
2022-12-12T14:18:40.043Z,15.07
2022-12-12T14:21:11.446Z,11.50
2022-12-12T14:23:43.392Z,15.17
2022-12-12T14:26:48.341Z,14.33
2022-12-12T14:29:26.392Z,13.43
2022-12-12T14:32:07.304Z,10.97
2022-12-12T14:34:45.361Z,9.03
2022-12-12T14:37:39.379Z,9.83
2022-12-12T14:40:19.689Z,10.70
2022-12-12T14:43:15.747Z,10.23
2022-12-12T14:45:53.033Z,16.00
2022-12-12T14:48:24.607Z,8.77
2022-12-12T14:51:11.882Z,11.77
2022-12-12T14:53:48.115Z,19.50
2022-12-12T14:56:28.497Z,16.07
2022-12-12T14:59:02.756Z,18.90
2022-12-12T15:01:34.838Z,15.37
2022-12-12T15:04:05.214Z,13.20
2022-12-12T15:06:36.396Z,8.43
2022-12-12T15:09:20.389Z,8.77
2022-12-12T15:11:50.932Z,11.83
2022-12-12T15:14:21.985Z,22.23
2022-12-12T15:16:54.943Z,8.43
2022-12-12T15:19:27.477Z,7.23
2022-12-12T15:21:56.328Z,8.70
2022-12-12T15:24:26.074Z,21.13
2022-12-12T15:26:58.148Z,15.90
2022-12-12T15:29:29.072Z,10.17
2022-12-12T15:32:02.162Z,10.87
2022-12-12T15:34:36.435Z,8.33
2022-12-12T15:37:29.417Z,11.13
2022-12-12T15:40:21.187Z,17.50
2022-12-12T15:42:55.105Z,15.13
2022-12-12T15:45:30.572Z,10.30
2022-12-12T15:48:15.808Z,13.03
2022-12-12T15:50:57.145Z,11.37
2022-12-12T15:53:27.609Z,11.80
2022-12-12T15:56:00.477Z,21.43
2022-12-12T15:58:33.264Z,8.70
2022-12-12T16:01:21.366Z,8.33
2022-12-12T16:03:59.142Z,6.83
2022-12-12T16:06:29.271Z,8.97
2022-12-12T16:09:03.168Z,10.53
2022-12-12T16:11:45.414Z,13.70
2022-12-12T16:14:43.069Z,7.73
2022-12-12T16:17:14.128Z,27.27
2022-12-12T16:19:46.919Z,21.43
2022-12-12T16:22:22.623Z,19.20
2022-12-12T16:24:52.955Z,39.43
2022-12-12T16:27:21.785Z,18.30
2022-12-12T16:29:52.460Z,9.40
2022-12-12T16:32:21.527Z,12.53
2022-12-12T16:34:49.852Z,51.53
2022-12-12T16:37:19.447Z,42.43
2022-12-12T16:39:47.889Z,17.60
2022-12-12T16:42:17.733Z,14.93
2022-12-12T16:44:46.437Z,12.27
2022-12-12T16:47:18.284Z,17.37
2022-12-12T16:49:47.231Z,12.50
2022-12-12T16:52:17.937Z,12.33
2022-12-12T16:54:53.097Z,15.47
2022-12-12T16:57:22.400Z,13.60
2022-12-12T16:59:50.800Z,18.37
2022-12-12T17:02:22.343Z,20.63
2022-12-12T17:04:52.055Z,22.50
2022-12-12T17:07:20.399Z,17.40
2022-12-12T17:09:48.715Z,13.77
2022-12-12T17:12:17.077Z,14.77
2022-12-12T17:14:45.641Z,17.00
2022-12-12T17:17:14.007Z,17.10
2022-12-12T17:19:43.951Z,19.07
2022-12-12T17:22:12.354Z,26.50
2022-12-12T17:24:40.724Z,36.07
2022-12-12T17:27:09.092Z,19.27
2022-12-12T17:29:37.448Z,24.20
2022-12-12T17:32:06.400Z,21.57
2022-12-12T17:34:34.972Z,23.77
2022-12-12T17:37:04.703Z,21.57
2022-12-12T17:39:33.840Z,13.87
2022-12-12T17:42:02.223Z,15.00
2022-12-12T17:44:30.831Z,15.77
2022-12-12T17:46:59.156Z,18.13
2022-12-12T17:49:27.773Z,14.27
2022-12-12T17:51:56.217Z,18.03
2022-12-12T17:54:25.884Z,19.40
2022-12-12T17:56:54.196Z,26.20
2022-12-12T17:59:22.892Z,16.57
2022-12-12T18:01:53.932Z,15.33
2022-12-12T18:04:27.764Z,15.77
2022-12-12T18:06:56.966Z,11.57
2022-12-12T18:09:26.965Z,17.33
2022-12-12T18:11:55.338Z,12.27
2022-12-12T18:14:23.997Z,23.20
2022-12-12T18:16:53.293Z,17.73
2022-12-12T18:19:22.833Z,21.67
2022-12-12T18:22:00.894Z,21.10
2022-12-12T18:24:32.958Z,12.70
2022-12-12T18:27:03.515Z,12.03
2022-12-12T18:29:32.724Z,11.73
2022-12-12T18:32:01.235Z,7.27
2022-12-12T18:34:29.747Z,10.23
2022-12-12T18:36:58.065Z,7.37
2022-12-12T18:39:26.381Z,8.53
2022-12-12T18:41:56.187Z,6.37
2022-12-12T18:44:24.543Z,8.70
2022-12-12T18:46:52.943Z,6.43
2022-12-12T18:49:21.370Z,9.40
2022-12-12T18:51:49.792Z,8.93
2022-12-12T18:54:18.602Z,7.33
2022-12-12T18:56:48.236Z,9.20
2022-12-12T18:59:18.008Z,14.03
2022-12-12T19:01:47.998Z,9.53
2022-12-12T19:04:22.854Z,11.60
2022-12-12T19:06:52.206Z,16.50
2022-12-12T19:09:22.210Z,15.13
2022-12-12T19:11:58.223Z,6.63
2022-12-12T19:14:59.717Z,7.13
2022-12-12T19:17:26.930Z,6.30
2022-12-12T19:19:55.700Z,5.30
2022-12-12T19:22:44.454Z,5.17
2022-12-12T19:25:12.569Z,5.80
2022-12-12T19:27:41.274Z,5.70
2022-12-12T19:30:13.160Z,6.37
2022-12-12T19:32:41.839Z,6.20
2022-12-12T19:35:10.979Z,3.87
2022-12-12T19:37:39.303Z,5.67
2022-12-12T19:40:09.764Z,7.10
2022-12-12T19:42:38.069Z,5.73
2022-12-12T19:45:07.600Z,5.47
2022-12-12T19:47:37.570Z,7.03
2022-12-12T19:50:07.143Z,4.23
2022-12-12T19:52:35.592Z,9.80
2022-12-12T19:55:04.080Z,8.17
2022-12-12T19:57:32.484Z,6.33
2022-12-12T20:00:00.803Z,6.47
2022-12-12T20:02:29.194Z,4.97
2022-12-12T20:04:58.960Z,7.80
2022-12-12T20:07:27.315Z,7.93
2022-12-12T20:09:55.720Z,6.60
2022-12-12T20:12:24.108Z,39.23
2022-12-12T20:14:52.439Z,13.57
2022-12-12T20:17:20.820Z,9.23
2022-12-12T20:19:49.555Z,7.67
2022-12-12T20:22:19.239Z,7.17
2022-12-12T20:24:47.615Z,11.60
2022-12-12T20:27:16.298Z,8.50
2022-12-12T20:29:44.667Z,10.90
2022-12-12T20:32:13.442Z,12.80
2022-12-12T20:34:41.915Z,10.87
2022-12-12T20:37:13.014Z,9.50
2022-12-12T20:39:45.420Z,13.37
2022-12-12T20:42:13.863Z,11.33
2022-12-12T20:44:42.217Z,11.50
2022-12-12T20:47:14.326Z,16.33
2022-12-12T20:49:43.567Z,8.77
2022-12-12T20:52:11.879Z,10.87
2022-12-12T20:54:40.181Z,8.93
2022-12-12T20:57:10.522Z,13.60
2022-12-12T20:59:38.919Z,11.77
2022-12-12T21:02:07.293Z,10.73
2022-12-12T21:04:35.639Z,12.17
2022-12-12T21:07:04.030Z,14.73
2022-12-12T21:09:32.459Z,17.87
2022-12-12T21:12:00.876Z,17.37
2022-12-12T21:14:33.003Z,16.57
2022-12-12T21:17:01.387Z,21.37
2022-12-12T21:19:29.720Z,27.40
2022-12-12T21:21:58.097Z,19.80
2022-12-12T21:24:26.880Z,25.27
2022-12-12T21:26:55.451Z,19.97
2022-12-12T21:29:23.885Z,19.17
2022-12-12T21:31:53.787Z,19.83
2022-12-12T21:34:23.223Z,11.80
2022-12-12T21:36:53.175Z,15.10
2022-12-12T21:39:23.063Z,15.93
2022-12-12T21:41:51.663Z,13.83
2022-12-12T21:44:20.795Z,14.77
2022-12-12T21:46:49.222Z,12.97
2022-12-12T21:49:26.268Z,11.10
2022-12-12T21:51:56.077Z,26.37
2022-12-12T21:54:25.006Z,9.97
2022-12-12T21:56:53.746Z,7.27
2022-12-12T21:59:22.372Z,7.90
2022-12-12T22:01:50.831Z,7.87
2022-12-12T22:04:20.848Z,6.47
2022-12-12T22:06:49.240Z,7.10
2022-12-12T22:09:17.822Z,11.53
2022-12-12T22:11:49.710Z,6.60
2022-12-12T22:14:19.416Z,10.43
2022-12-12T22:16:47.838Z,7.80
2022-12-12T22:19:17.287Z,7.20
2022-12-12T22:21:48.793Z,9.43
2022-12-12T22:24:18.281Z,10.20
2022-12-12T22:26:48.033Z,25.07
2022-12-12T22:29:18.870Z,17.17
2022-12-12T22:31:49.919Z,11.90
2022-12-12T22:34:20.823Z,12.60
2022-12-12T22:36:51.667Z,14.00
2022-12-12T22:39:23.281Z,19.30
2022-12-12T22:41:52.058Z,14.63
2022-12-12T22:44:22.707Z,13.47
2022-12-12T22:46:53.417Z,18.63
2022-12-12T22:49:25.697Z,18.40
2022-12-12T22:51:56.693Z,16.73
2022-12-12T22:54:25.471Z,14.20
2022-12-12T22:56:53.912Z,20.43
2022-12-12T22:59:22.441Z,25.63
2022-12-12T23:01:50.812Z,22.50
2022-12-12T23:04:19.222Z,21.27
2022-12-12T23:06:47.636Z,16.20
2022-12-12T23:09:19.573Z,20.37
2022-12-12T23:11:48.273Z,24.63
2022-12-12T23:14:21.476Z,15.10
2022-12-12T23:16:50.886Z,16.13
2022-12-12T23:19:21.700Z,13.10
2022-12-12T23:21:50.704Z,15.37
2022-12-12T23:24:20.368Z,11.17
2022-12-12T23:26:51.530Z,10.70
2022-12-12T23:29:20.343Z,13.70
2022-12-12T23:31:49.818Z,11.37
2022-12-12T23:34:20.925Z,10.43
2022-12-12T23:36:49.959Z,12.10
2022-12-12T23:39:21.820Z,12.27
2022-12-12T23:41:50.441Z,7.70
2022-12-12T23:44:20.166Z,11.43
2022-12-12T23:46:49.144Z,10.37
2022-12-12T23:49:18.976Z,9.20
2022-12-12T23:51:48.872Z,8.20
2022-12-12T23:54:18.903Z,7.97
2022-12-12T23:56:49.645Z,8.43
2022-12-12T23:59:19.641Z,7.53
